This is the latest recevied weather packets stored in our database for station/object HB9FRQ-10. If no packets are shown the sender has not sent any weather packets the latest 1 day(s).
| Time | Temp. | Humidity | Pressure | Rain* | Wind** | Luminosity | Snow |
|---|---|---|---|---|---|---|---|
| 1777770223 | 12.22° C | 98% | 1018.5 hPa | - | - | - | - |
| 1777769323 | 11.67° C | 100% | 1018.6 hPa | - | - | - | - |
| 1777768423 | 12.22° C | 98% | 1018.7 hPa | - | - | - | - |
| 1777767523 | 12.78° C | 96% | 1018.8 hPa | - | - | - | - |
| 1777766623 | 12.78° C | 99% | 1018.7 hPa | - | - | - | - |
| 1777765723 | 13.33° C | 93% | 1018.8 hPa | - | - | - | - |
| 1777764823 | 12.78° C | 94% | 1018.8 hPa | - | - | - | - |
| 1777763923 | 13.33° C | 94% | 1018.9 hPa | - | - | - | - |
| 1777763023 | 13.33° C | 93% | 1018.9 hPa | - | - | - | - |
| 1777762122 | 13.89° C | 93% | 1018.9 hPa | - | - | - | - |
| 1777761222 | 13.89° C | 92% | 1019.2 hPa | - | - | - | - |
| 1777760322 | 14.44° C | 89% | 1019 hPa | - | - | - | - |
| 1777759422 | 14.44° C | 89% | 1019.2 hPa | - | - | - | - |
| 1777758522 | 14.44° C | 86% | 1019.1 hPa | - | - | - | - |
| 1777756722 | 15.56° C | 82% | 1018.9 hPa | - | - | - | - |
| 1777755822 | 16.11° C | 77% | 1018.8 hPa | - | - | - | - |
| 1777754922 | 15.56° C | 79% | 1018.8 hPa | - | - | - | - |
| 1777754022 | 16.11° C | 74% | 1018.7 hPa | - | - | - | - |
| 1777753122 | 16.67° C | 71% | 1018.7 hPa | - | - | - | - |
| 1777752222 | 17.22° C | 66% | 1018.6 hPa | - | - | - | - |
| 1777751322 | 17.78° C | 61% | 1018.5 hPa | - | - | - | - |
| 1777750421 | 18.89° C | 58% | 1018.4 hPa | - | - | - | - |
| 1777749521 | 19.44° C | 55% | 1018.2 hPa | - | - | - | - |
| 1777748621 | 19.44° C | 55% | 1018.2 hPa | - | - | - | - |
| 1777747721 | 20° C | 56% | 1018.1 hPa | - | - | - | - |
* Rain since midnight (hover to see other rain measurements)
** Current wind speed in m/s (hover to see current wind gust speed)